createdAt,value
2018-06-10T00:00:20.971Z,20.48
2018-06-10T00:02:53.228Z,21.37
2018-06-10T00:05:24.825Z,20.98
2018-06-10T00:07:58.038Z,21.20
2018-06-10T00:10:30.060Z,20.60
2018-06-10T00:13:00.091Z,19.95
2018-06-10T00:15:32.255Z,19.73
2018-06-10T00:18:02.282Z,19.37
2018-06-10T00:20:33.106Z,20.20
2018-06-10T00:23:04.661Z,19.27
2018-06-10T00:25:36.309Z,20.83
2018-06-10T00:28:09.871Z,21.00
2018-06-10T00:30:43.344Z,20.67
2018-06-10T00:33:14.994Z,21.65
2018-06-10T00:35:48.148Z,21.65
2018-06-10T00:38:21.533Z,21.42
2018-06-10T00:40:56.192Z,19.17
2018-06-10T00:43:28.648Z,21.55
2018-06-10T00:46:02.108Z,22.17
2018-06-10T00:48:36.033Z,23.15
2018-06-10T00:51:10.871Z,21.42
2018-06-10T00:53:42.472Z,21.98
2018-06-10T00:56:48.115Z,21.87
2018-06-10T00:59:20.892Z,20.58
2018-06-10T01:01:53.889Z,21.85
2018-06-10T01:04:26.936Z,21.35
2018-06-10T01:06:58.731Z,21.60
2018-06-10T01:09:33.237Z,22.45
2018-06-10T01:12:05.000Z,20.55
2018-06-10T01:14:36.672Z,22.20
2018-06-10T01:17:11.028Z,21.02
2018-06-10T01:19:45.855Z,21.08
2018-06-10T01:22:19.418Z,21.42
2018-06-10T01:24:52.487Z,21.58
2018-06-10T01:27:25.524Z,21.55
2018-06-10T01:29:58.472Z,22.20
2018-06-10T01:32:30.103Z,21.67
2018-06-10T01:35:02.634Z,21.92
2018-06-10T01:37:35.688Z,21.40
2018-06-10T01:40:08.358Z,22.37
2018-06-10T01:42:40.739Z,23.15
2018-06-10T01:45:13.657Z,23.58
2018-06-10T01:47:47.018Z,22.08
2018-06-10T01:50:21.814Z,23.05
2018-06-10T01:52:54.922Z,22.00
2018-06-10T01:55:27.847Z,21.17
2018-06-10T01:58:01.931Z,22.17
2018-06-10T02:00:32.766Z,23.35
2018-06-10T02:03:06.338Z,22.20
2018-06-10T02:05:38.556Z,21.35
2018-06-10T02:08:10.086Z,21.23
2018-06-10T02:10:41.737Z,20.15
2018-06-10T02:13:15.066Z,19.98
2018-06-10T02:15:48.124Z,20.33
2018-06-10T02:18:21.461Z,20.80
2018-06-10T02:20:53.310Z,21.50
2018-06-10T02:23:26.295Z,22.58
2018-06-10T02:25:57.909Z,21.60
2018-06-10T02:28:29.450Z,22.58
2018-06-10T02:30:59.575Z,21.75
2018-06-10T02:33:29.704Z,22.27
2018-06-10T02:36:02.968Z,21.27
2018-06-10T02:38:34.817Z,20.25
2018-06-10T02:41:07.022Z,19.70
2018-06-10T02:43:38.769Z,20.02
2018-06-10T02:46:10.395Z,19.48
2018-06-10T02:48:41.920Z,20.25
2018-06-10T02:51:15.986Z,20.90
2018-06-10T02:53:48.090Z,21.10
2018-06-10T02:56:18.128Z,21.08
2018-06-10T02:58:52.285Z,19.35
2018-06-10T03:01:23.471Z,20.02
2018-06-10T03:03:56.435Z,25.93
2018-06-10T03:06:27.511Z,21.08
2018-06-10T03:09:00.513Z,19.80
2018-06-10T03:11:35.213Z,21.30
2018-06-10T03:14:05.215Z,20.77
2018-06-10T03:16:39.874Z,20.25
2018-06-10T03:19:13.547Z,18.60
2018-06-10T03:21:45.749Z,18.60
2018-06-10T03:24:20.431Z,18.33
2018-06-10T03:26:54.143Z,18.23
2018-06-10T03:29:27.221Z,17.70
2018-06-10T03:31:58.889Z,17.92
2018-06-10T03:34:30.604Z,19.87
2018-06-10T03:37:02.736Z,18.40
2018-06-10T03:39:37.045Z,20.17
2018-06-10T03:42:10.240Z,21.92
2018-06-10T03:44:42.256Z,20.60
2018-06-10T03:47:13.827Z,22.42
2018-06-10T03:49:47.246Z,23.75
2018-06-10T03:52:20.436Z,23.60
2018-06-10T03:54:53.752Z,30.93
2018-06-10T03:57:26.850Z,23.52
2018-06-10T04:00:00.420Z,23.87
2018-06-10T04:02:33.792Z,22.55
2018-06-10T04:05:05.382Z,24.10
2018-06-10T04:07:37.081Z,23.80
2018-06-10T04:10:08.896Z,23.23
2018-06-10T04:12:43.068Z,21.60
2018-06-10T04:15:16.159Z,23.05
2018-06-10T04:17:49.824Z,25.05
2018-06-10T04:20:24.484Z,24.20
2018-06-10T04:22:57.348Z,22.00
2018-06-10T04:25:30.451Z,22.27
2018-06-10T04:28:00.590Z,21.05
2018-06-10T04:30:32.244Z,21.92
2018-06-10T04:33:04.115Z,21.75
2018-06-10T04:35:39.306Z,22.10
2018-06-10T04:38:09.468Z,20.73
2018-06-10T04:40:41.015Z,20.75
2018-06-10T04:43:10.933Z,20.27
2018-06-10T04:45:42.474Z,19.70
2018-06-10T04:48:13.974Z,19.92
2018-06-10T04:50:47.090Z,21.02
2018-06-10T04:53:18.924Z,21.10
2018-06-10T04:55:53.443Z,20.25
2018-06-10T04:58:26.666Z,19.15
2018-06-10T05:00:59.604Z,18.67
2018-06-10T05:03:29.516Z,19.98
2018-06-10T05:06:04.178Z,18.85
2018-06-10T05:08:34.330Z,17.08
2018-06-10T05:11:07.365Z,16.00
2018-06-10T05:13:40.620Z,16.75
2018-06-10T05:16:12.309Z,17.08
2018-06-10T05:18:45.849Z,14.95
2018-06-10T05:21:17.387Z,15.95
2018-06-10T05:23:49.479Z,17.02
2018-06-10T05:26:22.953Z,15.75
2018-06-10T05:28:57.837Z,17.05
2018-06-10T05:31:31.434Z,19.15
2018-06-10T05:34:05.976Z,16.62
2018-06-10T05:36:40.216Z,13.13
2018-06-10T05:39:14.763Z,13.75
2018-06-10T05:41:48.181Z,13.20
2018-06-10T05:44:21.096Z,14.13
2018-06-10T05:46:54.436Z,13.50
2018-06-10T05:49:26.236Z,15.80
2018-06-10T05:51:57.624Z,13.13
2018-06-10T05:54:30.565Z,12.85
2018-06-10T05:57:02.201Z,13.32
2018-06-10T05:59:35.099Z,12.18
2018-06-10T06:02:08.818Z,11.23
2018-06-10T06:04:40.440Z,13.73
2018-06-10T06:07:13.319Z,12.37
2018-06-10T06:09:44.785Z,13.50
2018-06-10T06:12:16.194Z,12.85
2018-06-10T06:14:49.641Z,13.23
2018-06-10T06:17:21.606Z,11.93
2018-06-10T06:19:52.636Z,12.48
2018-06-10T06:22:26.116Z,12.35
2018-06-10T06:24:57.000Z,13.60
2018-06-10T06:27:30.097Z,12.20
2018-06-10T06:30:04.776Z,11.65
2018-06-10T06:32:36.235Z,12.00
2018-06-10T06:35:06.236Z,12.35
2018-06-10T06:37:38.137Z,12.45
2018-06-10T06:40:11.317Z,8.82
2018-06-10T06:42:44.208Z,11.80
2018-06-10T06:45:18.897Z,12.00
2018-06-10T06:47:48.926Z,11.50
2018-06-10T06:50:20.620Z,10.52
2018-06-10T06:52:50.695Z,10.63
2018-06-10T06:55:22.251Z,12.60
2018-06-10T06:57:55.504Z,11.60
2018-06-10T07:00:24.954Z,11.32
2018-06-10T07:02:58.170Z,12.05
2018-06-10T07:05:31.356Z,9.68
2018-06-10T07:08:04.246Z,10.82
2018-06-10T07:10:35.682Z,8.63
2018-06-10T07:13:05.328Z,10.23
2018-06-10T07:15:35.205Z,10.10
2018-06-10T07:18:06.909Z,10.50
2018-06-10T07:20:40.036Z,10.05
2018-06-10T07:23:11.434Z,9.15
2018-06-10T07:25:42.093Z,10.70
2018-06-10T07:28:12.338Z,10.43
2018-06-10T07:30:42.246Z,9.50
2018-06-10T07:33:13.900Z,8.40
2018-06-10T07:35:46.927Z,9.50
2018-06-10T07:38:16.923Z,10.82
2018-06-10T07:40:51.338Z,10.65
2018-06-10T07:43:26.046Z,11.73
2018-06-10T07:45:58.992Z,12.20
2018-06-10T07:48:30.401Z,12.07
2018-06-10T07:51:02.158Z,12.32
2018-06-10T07:53:34.110Z,10.30
2018-06-10T07:56:07.097Z,9.93
2018-06-10T07:58:42.047Z,10.80
2018-06-10T08:01:13.470Z,12.02
2018-06-10T08:03:49.375Z,12.85
2018-06-10T08:06:21.234Z,11.00
2018-06-10T08:08:52.878Z,9.48
2018-06-10T08:11:24.624Z,10.57
2018-06-10T08:13:56.163Z,10.82
2018-06-10T08:16:30.582Z,13.05
2018-06-10T08:19:03.842Z,11.15
2018-06-10T08:21:33.793Z,11.15
2018-06-10T08:24:08.198Z,12.32
2018-06-10T08:26:40.844Z,10.95
2018-06-10T08:29:12.443Z,13.00
2018-06-10T08:31:44.621Z,12.07
2018-06-10T08:34:18.086Z,11.25
2018-06-10T08:36:52.455Z,11.85
2018-06-10T08:39:23.854Z,13.18
2018-06-10T08:41:58.285Z,12.25
2018-06-10T08:44:31.394Z,12.00
2018-06-10T08:47:04.233Z,12.65
2018-06-10T08:49:38.896Z,12.00
2018-06-10T08:52:11.855Z,12.63
2018-06-10T08:54:44.307Z,12.75
2018-06-10T08:57:17.056Z,13.18
2018-06-10T08:59:49.916Z,12.70
2018-06-10T09:02:22.862Z,11.60
2018-06-10T09:04:57.311Z,12.75
2018-06-10T09:07:29.266Z,11.75
2018-06-10T09:10:00.762Z,11.77
2018-06-10T09:12:33.681Z,13.20
2018-06-10T09:15:07.049Z,11.23
2018-06-10T09:17:37.581Z,12.95
2018-06-10T09:20:10.427Z,13.23
2018-06-10T09:22:41.822Z,12.02
2018-06-10T09:25:13.240Z,12.23
2018-06-10T09:27:44.683Z,11.10
2018-06-10T09:30:14.931Z,12.32
2018-06-10T09:32:49.310Z,12.75
2018-06-10T09:35:21.048Z,12.93
2018-06-10T09:37:50.896Z,12.50
2018-06-10T09:40:24.618Z,12.93
2018-06-10T09:42:58.928Z,11.50
2018-06-10T09:45:30.366Z,14.05
2018-06-10T09:48:03.211Z,13.05
2018-06-10T09:50:36.321Z,11.88
2018-06-10T09:53:09.385Z,13.52
2018-06-10T09:55:41.700Z,15.07
2018-06-10T09:58:14.473Z,13.52
2018-06-10T10:00:47.604Z,12.50
2018-06-10T10:03:21.885Z,12.18
2018-06-10T10:05:56.676Z,11.93
2018-06-10T10:08:29.685Z,13.38
2018-06-10T10:11:03.039Z,13.55
2018-06-10T10:13:34.409Z,14.32
2018-06-10T10:16:05.867Z,14.90
2018-06-10T10:18:39.205Z,13.90
2018-06-10T10:21:12.198Z,14.70
2018-06-10T10:23:44.994Z,14.57
2018-06-10T10:26:16.433Z,15.27
2018-06-10T10:28:49.598Z,12.23
2018-06-10T10:31:22.978Z,13.77
2018-06-10T10:33:52.921Z,15.43
2018-06-10T10:36:27.653Z,14.35
2018-06-10T10:38:57.475Z,13.48
2018-06-10T10:41:30.541Z,14.63
2018-06-10T10:44:00.659Z,13.73
2018-06-10T10:46:31.872Z,15.23
2018-06-10T10:49:04.684Z,13.45
2018-06-10T10:51:38.086Z,13.38
2018-06-10T10:54:11.115Z,15.07
2018-06-10T10:56:44.463Z,15.00
2018-06-10T10:59:17.288Z,13.23
2018-06-10T11:01:48.962Z,13.48
2018-06-10T11:04:23.296Z,12.68
2018-06-10T11:06:54.776Z,14.07
2018-06-10T11:09:27.585Z,16.48
2018-06-10T11:11:59.144Z,14.82
2018-06-10T11:14:32.764Z,12.18
2018-06-10T11:17:04.266Z,12.93
2018-06-10T11:19:37.476Z,14.68
2018-06-10T11:22:10.486Z,13.40
2018-06-10T11:24:41.819Z,13.60
2018-06-10T11:27:16.499Z,13.75
2018-06-10T11:29:47.871Z,13.23
2018-06-10T11:32:22.256Z,13.00
2018-06-10T11:34:53.893Z,13.00
2018-06-10T11:37:28.353Z,13.90
2018-06-10T11:40:02.012Z,13.25
2018-06-10T11:42:33.615Z,14.30
2018-06-10T11:45:05.601Z,11.38
2018-06-10T11:47:37.064Z,13.45
2018-06-10T11:50:10.077Z,11.88
2018-06-10T11:52:41.482Z,14.48
2018-06-10T11:55:13.048Z,13.30
2018-06-10T11:57:46.307Z,11.60
2018-06-10T12:00:20.851Z,11.07
2018-06-10T12:02:52.385Z,11.95
2018-06-10T12:05:26.583Z,13.07
2018-06-10T12:07:58.118Z,13.70
2018-06-10T12:10:29.562Z,12.07
2018-06-10T12:13:00.434Z,10.52
2018-06-10T12:15:33.643Z,11.93
2018-06-10T12:18:07.965Z,11.52
2018-06-10T12:20:40.904Z,10.15
2018-06-10T12:23:13.836Z,12.10
2018-06-10T12:25:45.224Z,10.85
2018-06-10T12:28:18.559Z,11.12
2018-06-10T12:30:50.219Z,11.55
2018-06-10T12:33:21.538Z,10.55
2018-06-10T12:35:54.513Z,14.05
2018-06-10T12:38:26.412Z,12.95
2018-06-10T12:40:57.861Z,10.73
2018-06-10T12:43:29.559Z,12.15
2018-06-10T12:46:04.079Z,12.68
2018-06-10T12:48:37.118Z,11.57
2018-06-10T12:51:06.976Z,10.90
2018-06-10T12:53:39.814Z,11.63
2018-06-10T12:56:12.751Z,11.12
2018-06-10T12:58:43.139Z,10.60
2018-06-10T13:01:16.230Z,11.85
2018-06-10T13:03:50.754Z,13.35
2018-06-10T13:06:22.335Z,11.27
2018-06-10T13:08:56.613Z,11.32
2018-06-10T13:11:29.679Z,11.07
2018-06-10T13:14:02.719Z,11.35
2018-06-10T13:16:35.053Z,11.60
2018-06-10T13:19:08.792Z,11.65
2018-06-10T13:21:43.316Z,11.43
2018-06-10T13:24:16.256Z,11.65
2018-06-10T13:26:47.637Z,13.45
2018-06-10T13:29:19.103Z,10.52
2018-06-10T13:31:52.017Z,9.75
2018-06-10T13:34:23.723Z,11.15
2018-06-10T13:36:56.696Z,11.23
2018-06-10T13:39:28.032Z,10.95
2018-06-10T13:41:59.359Z,9.80
2018-06-10T13:44:33.604Z,11.82
2018-06-10T13:47:07.492Z,13.52
2018-06-10T13:49:38.571Z,12.70
2018-06-10T13:52:13.189Z,11.32
2018-06-10T13:54:46.030Z,12.37
2018-06-10T13:57:19.410Z,11.23
2018-06-10T13:59:52.276Z,11.35
2018-06-10T14:02:25.017Z,10.50
2018-06-10T14:04:57.974Z,13.62
2018-06-10T14:07:29.384Z,13.25
2018-06-10T14:10:02.554Z,11.32
2018-06-10T14:12:36.796Z,12.32
2018-06-10T14:15:11.529Z,11.45
2018-06-10T14:17:45.945Z,12.27
2018-06-10T14:20:19.020Z,10.77
2018-06-10T14:22:51.931Z,10.68
2018-06-10T14:25:24.808Z,11.10
2018-06-10T14:27:55.399Z,10.40
2018-06-10T14:30:27.094Z,10.00
2018-06-10T14:33:00.221Z,9.95
2018-06-10T14:35:31.648Z,10.52
2018-06-10T14:38:03.564Z,10.98
2018-06-10T14:40:35.059Z,12.00
2018-06-10T14:43:09.419Z,10.35
2018-06-10T14:45:40.512Z,10.43
2018-06-10T14:48:12.074Z,10.57
2018-06-10T14:50:45.102Z,9.52
2018-06-10T14:53:14.933Z,10.80
2018-06-10T14:55:46.351Z,10.50
2018-06-10T14:58:18.450Z,9.82
2018-06-10T15:00:52.883Z,10.82
2018-06-10T15:03:22.709Z,11.10
2018-06-10T15:05:55.591Z,10.80
2018-06-10T15:08:26.928Z,10.48
2018-06-10T15:10:58.270Z,11.82
2018-06-10T15:13:31.143Z,11.40
2018-06-10T15:16:02.714Z,11.05
2018-06-10T15:18:32.321Z,10.70
2018-06-10T15:21:05.379Z,12.10
2018-06-10T15:23:39.675Z,12.18
2018-06-10T15:26:12.517Z,11.25
2018-06-10T15:28:46.821Z,12.43
2018-06-10T15:31:21.260Z,13.10
2018-06-10T15:33:54.086Z,12.05
2018-06-10T15:36:25.526Z,12.35
2018-06-10T15:38:56.941Z,10.38
2018-06-10T15:41:29.977Z,9.65
2018-06-10T15:44:04.739Z,13.02
2018-06-10T15:46:37.044Z,12.70
2018-06-10T15:49:08.245Z,12.68
2018-06-10T15:51:41.055Z,11.00
2018-06-10T15:54:15.381Z,10.48
2018-06-10T15:56:48.544Z,10.77
2018-06-10T15:59:21.445Z,11.00
2018-06-10T16:01:52.729Z,10.38
2018-06-10T16:04:23.608Z,9.60
2018-06-10T16:06:54.060Z,10.82
2018-06-10T16:09:27.186Z,10.13
2018-06-10T16:12:00.233Z,10.05
2018-06-10T16:14:33.316Z,9.73
2018-06-10T16:17:04.886Z,8.85
2018-06-10T16:19:37.826Z,9.80
2018-06-10T16:22:12.392Z,8.85
2018-06-10T16:24:46.877Z,8.52
2018-06-10T16:27:18.347Z,8.65
2018-06-10T16:29:52.615Z,9.73
2018-06-10T16:32:24.022Z,8.55
2018-06-10T16:34:56.797Z,8.07
2018-06-10T16:37:31.091Z,7.57
2018-06-10T16:40:04.061Z,8.80
2018-06-10T16:42:38.623Z,8.93
2018-06-10T16:45:08.631Z,8.38
2018-06-10T16:47:41.531Z,8.13
2018-06-10T16:50:16.350Z,8.27
2018-06-10T16:52:49.313Z,8.40
2018-06-10T16:55:22.661Z,7.75
2018-06-10T16:57:54.196Z,7.95
2018-06-10T17:00:28.652Z,9.77
2018-06-10T17:02:58.532Z,9.57
2018-06-10T17:05:31.428Z,10.02
2018-06-10T17:08:04.380Z,9.52
2018-06-10T17:10:34.919Z,8.80
2018-06-10T17:13:07.628Z,9.13
2018-06-10T17:15:38.361Z,9.32
2018-06-10T17:18:12.590Z,9.82
2018-06-10T17:20:46.905Z,9.93
2018-06-10T17:23:21.416Z,9.60
2018-06-10T17:25:54.356Z,9.18
2018-06-10T17:28:25.911Z,9.07
2018-06-10T17:30:58.950Z,9.48
2018-06-10T17:33:30.821Z,9.10
2018-06-10T17:36:02.213Z,8.45
2018-06-10T17:38:32.149Z,9.70
2018-06-10T17:41:02.566Z,8.43
2018-06-10T17:43:35.463Z,8.98
2018-06-10T17:46:09.330Z,9.63
2018-06-10T17:48:41.222Z,9.23
2018-06-10T17:51:11.122Z,10.98
2018-06-10T17:53:43.624Z,10.07
2018-06-10T17:56:16.506Z,10.02
2018-06-10T17:58:48.525Z,9.95
2018-06-10T18:01:20.099Z,9.48
2018-06-10T18:03:53.064Z,9.55
2018-06-10T18:06:25.380Z,10.48
2018-06-10T18:08:57.006Z,9.57
2018-06-10T18:11:30.674Z,9.85
2018-06-10T18:14:05.111Z,9.57
2018-06-10T18:16:35.188Z,10.10
2018-06-10T18:19:08.526Z,9.75
2018-06-10T18:21:41.683Z,10.07
2018-06-10T18:24:14.225Z,9.10
2018-06-10T18:26:47.125Z,9.38
2018-06-10T18:29:20.756Z,9.52
2018-06-10T18:31:53.761Z,9.13
2018-06-10T18:34:25.221Z,9.43
2018-06-10T18:36:58.163Z,8.90
2018-06-10T18:39:31.689Z,9.43
2018-06-10T18:42:03.254Z,7.70
2018-06-10T18:44:35.590Z,9.00
2018-06-10T18:47:08.208Z,9.07
2018-06-10T18:49:42.741Z,8.70
2018-06-10T18:52:15.678Z,8.82
2018-06-10T18:54:47.287Z,9.23
2018-06-10T18:57:20.151Z,9.05
2018-06-10T18:59:53.345Z,8.23
2018-06-10T19:02:27.003Z,9.27
2018-06-10T19:05:00.574Z,9.35
2018-06-10T19:07:33.575Z,8.70
2018-06-10T19:10:03.583Z,8.07
2018-06-10T19:12:38.006Z,9.00
2018-06-10T19:15:08.821Z,8.98
2018-06-10T19:17:43.562Z,8.55
2018-06-10T19:20:17.877Z,8.15
2018-06-10T19:22:52.312Z,8.65
2018-06-10T19:25:25.479Z,8.35
2018-06-10T19:27:58.799Z,7.75
2018-06-10T19:30:33.219Z,8.52
2018-06-10T19:33:04.372Z,8.65
2018-06-10T19:35:38.436Z,9.38
2018-06-10T19:38:11.485Z,9.63
2018-06-10T19:40:44.732Z,8.90
2018-06-10T19:43:18.758Z,9.43
2018-06-10T19:45:51.660Z,9.75
2018-06-10T19:48:26.191Z,9.05
2018-06-10T19:50:59.133Z,8.52
2018-06-10T19:53:32.277Z,9.23
2018-06-10T19:56:05.667Z,8.82
2018-06-10T19:58:35.568Z,8.48
2018-06-10T20:01:10.454Z,8.18
2018-06-10T20:03:42.057Z,8.48
2018-06-10T20:06:14.935Z,9.65
2018-06-10T20:08:47.006Z,9.45
2018-06-10T20:11:20.071Z,8.20
2018-06-10T20:13:53.264Z,8.75
2018-06-10T20:16:24.925Z,10.23
2018-06-10T20:18:59.940Z,9.25
2018-06-10T20:21:32.470Z,9.23
2018-06-10T20:24:06.055Z,9.73
2018-06-10T20:26:37.554Z,10.35
2018-06-10T20:29:08.124Z,9.50
2018-06-10T20:31:40.993Z,9.05
2018-06-10T20:34:12.558Z,10.15
2018-06-10T20:36:43.261Z,8.95
2018-06-10T20:39:18.303Z,10.35
2018-06-10T20:41:52.918Z,9.27
2018-06-10T20:44:25.973Z,10.52
2018-06-10T20:46:59.025Z,9.30
2018-06-10T20:49:33.965Z,9.57
2018-06-10T20:52:08.382Z,9.95
2018-06-10T20:54:39.999Z,10.30
2018-06-10T20:57:14.595Z,10.00
2018-06-10T20:59:49.058Z,8.75
2018-06-10T21:02:23.813Z,10.13
2018-06-10T21:04:58.659Z,9.98
2018-06-10T21:07:33.226Z,9.13
2018-06-10T21:10:04.783Z,9.98
2018-06-10T21:12:37.910Z,10.02
2018-06-10T21:15:12.506Z,9.55
2018-06-10T21:17:45.621Z,9.80
2018-06-10T21:20:20.242Z,10.38
2018-06-10T21:22:53.242Z,9.48
2018-06-10T21:25:28.312Z,9.73
2018-06-10T21:28:02.939Z,9.50
2018-06-10T21:30:34.375Z,8.90
2018-06-10T21:33:08.892Z,10.05
2018-06-10T21:35:40.894Z,9.00
2018-06-10T21:38:12.396Z,8.52
2018-06-10T21:40:45.553Z,10.13
2018-06-10T21:43:19.276Z,9.20
2018-06-10T21:45:52.227Z,8.80
2018-06-10T21:48:23.344Z,9.00
2018-06-10T21:50:56.791Z,9.43
2018-06-10T21:53:29.750Z,9.63
2018-06-10T21:56:04.208Z,8.95
2018-06-10T21:58:37.369Z,10.27
2018-06-10T22:01:10.969Z,10.88
2018-06-10T22:03:44.063Z,8.90
2018-06-10T22:06:15.738Z,10.30
2018-06-10T22:08:48.773Z,11.30
2018-06-10T22:11:20.800Z,10.68
2018-06-10T22:13:50.828Z,10.75
2018-06-10T22:16:22.270Z,10.40
2018-06-10T22:18:55.473Z,9.93
2018-06-10T22:21:27.385Z,10.70
2018-06-10T22:24:02.491Z,11.88
2018-06-10T22:26:35.798Z,11.43
2018-06-10T22:29:09.423Z,11.00
2018-06-10T22:31:42.299Z,10.50
2018-06-10T22:34:13.838Z,11.30
2018-06-10T22:36:45.573Z,12.07
2018-06-10T22:39:20.337Z,10.52
2018-06-10T22:41:53.522Z,10.85
2018-06-10T22:44:25.172Z,10.52
2018-06-10T22:46:56.796Z,10.85
2018-06-10T22:49:30.054Z,10.27
2018-06-10T22:52:03.980Z,11.68
2018-06-10T22:54:42.572Z,10.88
2018-06-10T22:57:13.952Z,10.48
2018-06-10T22:59:48.430Z,12.32
2018-06-10T23:02:23.296Z,11.05
2018-06-10T23:04:56.332Z,11.88
2018-06-10T23:07:31.078Z,11.85
2018-06-10T23:10:02.575Z,10.98
2018-06-10T23:12:36.592Z,11.02
2018-06-10T23:15:11.409Z,10.35
2018-06-10T23:17:43.526Z,9.27
2018-06-10T23:20:15.534Z,9.38
2018-06-10T23:22:47.090Z,10.00
2018-06-10T23:25:20.513Z,8.65
2018-06-10T23:27:55.154Z,9.30
2018-06-10T23:30:29.897Z,8.95
2018-06-10T23:33:01.402Z,8.43
2018-06-10T23:35:36.118Z,9.25
2018-06-10T23:38:10.986Z,10.32
2018-06-10T23:40:44.618Z,9.55
2018-06-10T23:43:19.064Z,10.68
2018-06-10T23:45:50.593Z,10.02
2018-06-10T23:48:22.273Z,10.77
2018-06-10T23:50:53.966Z,9.18
2018-06-10T23:53:25.609Z,9.43
2018-06-10T23:56:00.340Z,10.20
2018-06-10T23:58:33.501Z,9.48
